createdAt,value
2018-06-29T00:00:38.182Z,13.13
2018-06-29T00:03:06.623Z,11.73
2018-06-29T00:05:35.054Z,15.10
2018-06-29T00:08:03.550Z,14.53
2018-06-29T00:10:32.042Z,12.67
2018-06-29T00:13:00.527Z,16.23
2018-06-29T00:15:28.947Z,17.97
2018-06-29T00:17:57.384Z,12.83
2018-06-29T00:20:25.851Z,13.17
2018-06-29T00:22:54.328Z,13.07
2018-06-29T00:25:22.998Z,11.97
2018-06-29T00:27:51.148Z,12.93
2018-06-29T00:30:19.605Z,13.93
2018-06-29T00:32:48.085Z,13.90
2018-06-29T00:35:17.146Z,15.50
2018-06-29T00:37:45.603Z,14.57
2018-06-29T00:40:14.084Z,13.60
2018-06-29T00:42:42.618Z,14.37
2018-06-29T00:45:11.137Z,13.73
2018-06-29T00:47:39.591Z,14.73
2018-06-29T00:50:08.169Z,14.20
2018-06-29T00:52:37.399Z,15.77
2018-06-29T00:55:06.112Z,13.30
2018-06-29T00:57:34.277Z,14.20
2018-06-29T01:00:05.923Z,14.97
2018-06-29T01:02:34.364Z,13.93
2018-06-29T01:05:02.817Z,13.73
2018-06-29T01:07:31.793Z,16.20
2018-06-29T01:10:00.292Z,13.70
2018-06-29T01:12:28.827Z,13.13
2018-06-29T01:14:57.386Z,12.93
2018-06-29T01:17:25.877Z,13.50
2018-06-29T01:19:54.500Z,13.63
2018-06-29T01:22:22.986Z,14.47
2018-06-29T01:24:51.445Z,12.33
2018-06-29T01:27:19.946Z,14.10
2018-06-29T01:29:48.473Z,15.17
2018-06-29T01:32:16.954Z,15.03
2018-06-29T01:34:45.425Z,14.43
2018-06-29T01:37:13.877Z,14.10
2018-06-29T01:39:42.353Z,15.83
2018-06-29T01:42:10.830Z,15.90
2018-06-29T01:44:39.554Z,13.43
2018-06-29T01:47:07.720Z,18.40
2018-06-29T01:49:36.489Z,16.60
2018-06-29T01:52:05.051Z,15.33
2018-06-29T01:54:33.522Z,13.30
2018-06-29T01:57:02.014Z,16.57
2018-06-29T01:59:30.469Z,16.00
2018-06-29T02:01:58.965Z,15.37
2018-06-29T02:04:27.432Z,17.63
2018-06-29T02:06:55.945Z,16.77
2018-06-29T02:09:24.669Z,15.63
2018-06-29T02:11:53.209Z,16.30
2018-06-29T02:14:21.655Z,15.33
2018-06-29T02:16:50.152Z,17.60
2018-06-29T02:19:18.614Z,16.17
2018-06-29T02:21:47.164Z,17.07
2018-06-29T02:24:15.609Z,15.40
2018-06-29T02:26:44.074Z,13.87
2018-06-29T02:29:12.880Z,19.10
2018-06-29T02:31:41.353Z,14.70
2018-06-29T02:34:09.801Z,14.50
2018-06-29T02:36:37.965Z,16.60
2018-06-29T02:39:09.280Z,14.30
2018-06-29T02:41:37.737Z,17.03
2018-06-29T02:44:06.252Z,14.83
2018-06-29T02:46:34.793Z,17.50
2018-06-29T02:49:03.550Z,15.77
2018-06-29T02:51:32.124Z,15.10
2018-06-29T02:54:00.614Z,16.47
2018-06-29T02:56:29.103Z,14.73
2018-06-29T02:58:57.619Z,16.23
2018-06-29T03:01:26.067Z,15.80
2018-06-29T03:03:54.588Z,15.83
2018-06-29T03:06:23.111Z,18.97
2018-06-29T03:08:51.863Z,15.00
2018-06-29T03:11:20.536Z,13.90
2018-06-29T03:13:49.477Z,14.13
2018-06-29T03:16:18.035Z,21.00
2018-06-29T03:18:46.928Z,17.70
2018-06-29T03:21:15.966Z,13.40
2018-06-29T03:23:44.816Z,14.23
2018-06-29T03:26:13.421Z,15.20
2018-06-29T03:28:42.396Z,16.40
2018-06-29T03:31:12.229Z,16.80
2018-06-29T03:33:40.602Z,15.33
2018-06-29T03:36:09.237Z,20.60
2018-06-29T03:38:37.732Z,12.50
2018-06-29T03:41:06.323Z,17.70
2018-06-29T03:43:34.930Z,14.33
2018-06-29T03:46:04.229Z,15.20
2018-06-29T03:48:32.793Z,25.17
2018-06-29T03:51:01.535Z,15.40
2018-06-29T03:53:30.116Z,14.33
2018-06-29T03:55:58.647Z,13.67
2018-06-29T03:58:27.226Z,14.20
2018-06-29T04:00:56.239Z,11.57
2018-06-29T04:03:24.924Z,14.53
2018-06-29T04:05:53.397Z,15.13
2018-06-29T04:08:21.934Z,18.00
2018-06-29T04:10:50.428Z,12.73
2018-06-29T04:13:19.002Z,20.93
2018-06-29T04:15:47.696Z,15.37
2018-06-29T04:18:16.278Z,15.93
2018-06-29T04:20:44.728Z,15.03
2018-06-29T04:23:13.265Z,13.83
2018-06-29T04:25:41.507Z,15.00
2018-06-29T04:28:10.025Z,14.80
2018-06-29T04:30:38.600Z,16.77
2018-06-29T04:33:09.240Z,15.07
2018-06-29T04:35:37.666Z,13.87
2018-06-29T04:38:06.363Z,15.67
2018-06-29T04:40:34.817Z,16.20
2018-06-29T04:43:03.356Z,16.57
2018-06-29T04:45:31.953Z,13.23
2018-06-29T04:48:00.468Z,18.17
2018-06-29T04:50:28.976Z,16.87
2018-06-29T04:52:57.432Z,15.43
2018-06-29T04:55:26.506Z,17.33
2018-06-29T04:57:54.700Z,16.50
2018-06-29T05:00:23.185Z,17.43
2018-06-29T05:02:52.365Z,17.07
2018-06-29T05:05:21.022Z,15.53
2018-06-29T05:07:49.445Z,15.77
2018-06-29T05:10:18.028Z,15.53
2018-06-29T05:12:46.153Z,18.97
2018-06-29T05:15:14.665Z,16.60
2018-06-29T05:17:43.102Z,14.13
2018-06-29T05:20:11.717Z,15.93
2018-06-29T05:22:40.238Z,13.60
2018-06-29T05:25:08.757Z,14.17
2018-06-29T05:27:37.282Z,16.17
2018-06-29T05:30:05.965Z,19.27
2018-06-29T05:32:34.454Z,17.30
2018-06-29T05:35:02.925Z,15.33
2018-06-29T05:37:32.581Z,17.90
2018-06-29T05:40:01.095Z,16.17
2018-06-29T05:42:29.695Z,14.67
2018-06-29T05:44:57.934Z,15.47
2018-06-29T05:47:26.420Z,13.10
2018-06-29T05:49:56.007Z,14.50
2018-06-29T05:52:24.497Z,17.40
2018-06-29T05:54:52.976Z,12.30
2018-06-29T05:57:21.403Z,10.80
2018-06-29T05:59:50.105Z,16.13
2018-06-29T06:02:18.650Z,15.23
2018-06-29T06:04:47.376Z,13.97
2018-06-29T06:07:16.393Z,17.50
2018-06-29T06:09:44.845Z,12.37
2018-06-29T06:12:13.426Z,14.63
2018-06-29T06:14:41.942Z,16.70
2018-06-29T06:17:10.429Z,13.23
2018-06-29T06:19:50.298Z,13.53
2018-06-29T06:22:18.840Z,13.30
2018-06-29T06:24:47.438Z,16.87
2018-06-29T06:27:16.749Z,14.70
2018-06-29T06:29:45.299Z,15.23
2018-06-29T06:32:13.992Z,13.50
2018-06-29T06:34:42.833Z,11.87
2018-06-29T06:37:11.567Z,17.50
2018-06-29T06:39:40.068Z,14.47
2018-06-29T06:42:08.236Z,14.60
2018-06-29T06:44:36.749Z,15.83
2018-06-29T06:47:05.333Z,15.37
2018-06-29T06:49:33.969Z,19.53
2018-06-29T06:52:02.585Z,21.33
2018-06-29T06:54:31.084Z,11.97
2018-06-29T06:57:00.589Z,11.83
2018-06-29T06:59:29.386Z,14.27
2018-06-29T07:01:58.548Z,13.30
2018-06-29T07:04:26.708Z,15.03
2018-06-29T07:06:55.233Z,15.63
2018-06-29T07:09:23.720Z,15.40
2018-06-29T07:11:52.282Z,11.50
2018-06-29T07:14:20.465Z,11.23
2018-06-29T07:16:48.981Z,13.30
2018-06-29T07:19:17.565Z,10.90
2018-06-29T07:21:46.140Z,12.53
2018-06-29T07:24:14.685Z,14.30
2018-06-29T07:26:43.309Z,13.63
2018-06-29T07:29:12.080Z,13.07
2018-06-29T07:31:40.625Z,12.27
2018-06-29T07:34:09.121Z,15.83
2018-06-29T07:36:37.609Z,17.47
2018-06-29T07:39:06.724Z,11.33
2018-06-29T07:41:35.249Z,8.97
2018-06-29T07:44:03.836Z,13.40
2018-06-29T07:46:32.348Z,11.87
2018-06-29T07:49:00.499Z,12.13
2018-06-29T07:51:28.970Z,13.83
2018-06-29T07:53:57.513Z,12.40
2018-06-29T07:56:26.025Z,12.70
2018-06-29T07:58:54.565Z,12.70
2018-06-29T08:01:23.096Z,11.07
2018-06-29T08:03:51.632Z,14.67
2018-06-29T08:06:20.113Z,18.03
2018-06-29T08:08:48.609Z,12.17
2018-06-29T08:11:17.139Z,13.43
2018-06-29T08:13:45.603Z,13.10
2018-06-29T08:16:14.098Z,16.37
2018-06-29T08:18:42.936Z,13.50
2018-06-29T08:21:11.141Z,14.13
2018-06-29T08:23:39.641Z,16.57
2018-06-29T08:26:19.285Z,17.23
2018-06-29T08:28:47.742Z,13.87
2018-06-29T08:31:16.826Z,11.80
2018-06-29T08:33:45.340Z,11.20
2018-06-29T08:36:13.962Z,12.63
2018-06-29T08:38:42.751Z,14.43
2018-06-29T08:41:11.363Z,16.10
2018-06-29T08:43:40.877Z,13.40
2018-06-29T08:46:09.533Z,12.60
2018-06-29T08:48:38.265Z,13.60
2018-06-29T08:51:06.790Z,12.10
2018-06-29T08:53:35.298Z,10.07
2018-06-29T08:56:03.828Z,14.33
2018-06-29T08:58:32.569Z,15.50
2018-06-29T09:01:01.029Z,12.30
2018-06-29T09:03:29.561Z,10.80
2018-06-29T09:05:58.326Z,11.50
2018-06-29T09:08:26.929Z,15.10
2018-06-29T09:10:55.543Z,15.47
2018-06-29T09:13:23.998Z,14.53
2018-06-29T09:15:52.501Z,13.37
2018-06-29T09:18:20.989Z,16.43
2018-06-29T09:20:49.571Z,16.17
2018-06-29T09:23:18.075Z,13.30
2018-06-29T09:25:46.589Z,16.30
2018-06-29T09:28:15.070Z,16.83
2018-06-29T09:30:43.252Z,12.93
2018-06-29T09:33:11.432Z,16.63
2018-06-29T09:35:39.604Z,14.70
2018-06-29T09:38:08.097Z,12.60
2018-06-29T09:40:36.613Z,16.43
2018-06-29T09:43:05.221Z,14.13
2018-06-29T09:45:33.725Z,16.73
2018-06-29T09:48:02.365Z,13.70
2018-06-29T09:50:30.769Z,14.23
2018-06-29T09:52:59.280Z,13.60
2018-06-29T09:55:27.787Z,15.17
2018-06-29T09:57:56.609Z,13.40
2018-06-29T10:00:32.062Z,15.63
2018-06-29T10:03:01.103Z,14.50
2018-06-29T10:05:30.019Z,21.13
2018-06-29T10:07:58.518Z,15.57
2018-06-29T10:10:27.081Z,13.83
2018-06-29T10:12:55.577Z,14.20
2018-06-29T10:15:24.119Z,15.63
2018-06-29T10:17:53.122Z,18.07
2018-06-29T10:20:21.649Z,13.57
2018-06-29T10:22:50.163Z,16.00
2018-06-29T10:25:18.826Z,17.23
2018-06-29T10:27:47.834Z,15.60
2018-06-29T10:30:16.394Z,17.27
2018-06-29T10:32:44.898Z,13.97
2018-06-29T10:35:13.492Z,15.63
2018-06-29T10:37:42.076Z,13.93
2018-06-29T10:40:11.344Z,14.53
2018-06-29T10:42:39.829Z,16.50
2018-06-29T10:45:08.410Z,16.87
2018-06-29T10:47:36.881Z,14.47
2018-06-29T10:50:06.822Z,15.60
2018-06-29T10:52:35.403Z,16.50
2018-06-29T10:55:03.965Z,13.93
2018-06-29T10:57:33.439Z,14.50
2018-06-29T11:00:02.021Z,13.43
2018-06-29T11:02:30.717Z,14.60
2018-06-29T11:04:59.282Z,12.87
2018-06-29T11:07:27.801Z,10.90
2018-06-29T11:09:56.286Z,22.43
2018-06-29T11:12:24.878Z,13.70
2018-06-29T11:14:54.042Z,12.30
2018-06-29T11:17:22.619Z,11.27
2018-06-29T11:19:51.126Z,12.63
2018-06-29T11:22:21.007Z,13.43
2018-06-29T11:24:49.515Z,12.00
2018-06-29T11:27:18.104Z,10.53
2018-06-29T11:29:46.410Z,11.50
2018-06-29T11:32:14.905Z,11.10
2018-06-29T11:34:43.990Z,12.37
2018-06-29T11:37:13.327Z,13.27
2018-06-29T11:39:42.035Z,11.57
2018-06-29T11:42:11.025Z,12.00
2018-06-29T11:44:40.787Z,12.20
2018-06-29T11:47:09.360Z,12.47
2018-06-29T11:49:39.170Z,13.93
2018-06-29T11:52:07.737Z,17.30
2018-06-29T11:54:35.923Z,11.30
2018-06-29T11:57:05.195Z,13.20
2018-06-29T11:59:33.745Z,11.27
2018-06-29T12:02:02.316Z,13.20
2018-06-29T12:04:30.906Z,12.97
2018-06-29T12:07:00.181Z,14.10
2018-06-29T12:09:29.418Z,12.37
2018-06-29T12:11:58.582Z,10.53
2018-06-29T12:14:27.143Z,13.37
2018-06-29T12:16:55.691Z,12.83
2018-06-29T12:19:24.189Z,13.10
2018-06-29T12:21:52.735Z,14.00
2018-06-29T12:24:21.259Z,13.30
2018-06-29T12:26:49.853Z,12.73
2018-06-29T12:29:18.497Z,11.47
2018-06-29T12:31:47.141Z,11.30
2018-06-29T12:34:16.980Z,11.73
2018-06-29T12:36:45.666Z,10.73
2018-06-29T12:39:14.186Z,11.90
2018-06-29T12:41:42.802Z,11.43
2018-06-29T12:44:11.082Z,12.50
2018-06-29T12:46:40.805Z,10.50
2018-06-29T12:49:09.309Z,12.47
2018-06-29T12:51:38.474Z,10.63
2018-06-29T12:54:06.693Z,11.57
2018-06-29T12:56:35.251Z,9.50
2018-06-29T12:59:03.874Z,10.83
2018-06-29T13:01:32.475Z,10.47
2018-06-29T13:04:00.993Z,13.83
2018-06-29T13:06:29.234Z,10.63
2018-06-29T13:08:58.111Z,9.43
2018-06-29T13:11:26.636Z,9.67
2018-06-29T13:13:54.840Z,11.63
2018-06-29T13:16:23.581Z,8.20
2018-06-29T13:18:52.063Z,8.87
2018-06-29T13:21:21.402Z,8.87
2018-06-29T13:23:50.000Z,9.03
2018-06-29T13:26:18.542Z,9.03
2018-06-29T13:28:47.339Z,8.20
2018-06-29T13:31:15.884Z,6.97
2018-06-29T13:33:45.164Z,8.87
2018-06-29T13:36:13.763Z,8.17
2018-06-29T13:38:42.920Z,8.30
2018-06-29T13:41:11.127Z,7.77
2018-06-29T13:43:40.183Z,9.07
2018-06-29T13:46:08.844Z,9.17
2018-06-29T13:48:37.341Z,7.97
2018-06-29T13:51:06.346Z,9.93
2018-06-29T13:53:35.225Z,7.37
2018-06-29T13:56:03.783Z,6.90
2018-06-29T13:58:32.887Z,11.13
2018-06-29T14:01:01.649Z,8.30
2018-06-29T14:03:30.131Z,14.47
2018-06-29T14:05:58.681Z,10.23
2018-06-29T14:08:27.269Z,8.37
2018-06-29T14:10:56.114Z,9.97
2018-06-29T14:13:24.860Z,8.97
2018-06-29T14:15:53.398Z,7.87
2018-06-29T14:18:21.898Z,10.97
2018-06-29T14:20:50.444Z,12.60
2018-06-29T14:23:18.982Z,7.90
2018-06-29T14:25:47.589Z,7.70
2018-06-29T14:28:16.094Z,10.87
2018-06-29T14:30:44.661Z,8.70
2018-06-29T14:33:13.189Z,8.90
2018-06-29T14:35:41.771Z,9.40
2018-06-29T14:38:10.349Z,8.93
2018-06-29T14:40:38.832Z,9.07
2018-06-29T14:43:07.541Z,8.57
2018-06-29T14:45:35.734Z,8.17
2018-06-29T14:48:07.958Z,8.60
2018-06-29T14:50:37.625Z,8.07
2018-06-29T14:53:06.222Z,9.70
2018-06-29T14:55:34.753Z,8.03
2018-06-29T14:58:03.273Z,8.63
2018-06-29T15:00:31.757Z,7.53
2018-06-29T15:03:01.359Z,7.80
2018-06-29T15:05:29.537Z,8.33
2018-06-29T15:07:58.309Z,7.80
2018-06-29T15:10:27.139Z,9.93
2018-06-29T15:12:55.669Z,9.37
2018-06-29T15:15:24.246Z,8.57
2018-06-29T15:17:52.873Z,7.57
2018-06-29T15:20:21.353Z,6.97
2018-06-29T15:22:49.925Z,9.10
2018-06-29T15:25:18.512Z,8.43
2018-06-29T15:27:46.649Z,9.30
2018-06-29T15:30:15.181Z,8.97
2018-06-29T15:32:44.542Z,8.53
2018-06-29T15:35:13.579Z,8.93
2018-06-29T15:37:42.092Z,8.00
2018-06-29T15:40:10.588Z,8.83
2018-06-29T15:42:39.300Z,9.10
2018-06-29T15:45:08.113Z,11.57
2018-06-29T15:47:36.651Z,9.47
2018-06-29T15:50:05.242Z,9.23
2018-06-29T15:52:33.783Z,11.53
2018-06-29T15:55:02.342Z,8.80
2018-06-29T15:57:31.480Z,8.93
2018-06-29T16:00:00.095Z,9.77
2018-06-29T16:02:28.917Z,9.23
2018-06-29T16:04:57.294Z,10.17
2018-06-29T16:07:25.468Z,10.70
2018-06-29T16:09:53.634Z,14.63
2018-06-29T16:12:22.417Z,10.60
2018-06-29T16:14:50.943Z,9.33
2018-06-29T16:17:19.454Z,13.23
2018-06-29T16:19:48.050Z,20.57
2018-06-29T16:22:16.615Z,9.90
2018-06-29T16:24:45.093Z,8.97
2018-06-29T16:27:13.602Z,12.60
2018-06-29T16:29:42.844Z,8.37
2018-06-29T16:32:11.342Z,8.07
2018-06-29T16:34:40.100Z,8.57
2018-06-29T16:37:09.292Z,11.10
2018-06-29T16:39:38.069Z,9.30
2018-06-29T16:42:06.695Z,7.93
2018-06-29T16:44:35.296Z,8.90
2018-06-29T16:47:05.551Z,12.73
2018-06-29T16:49:34.262Z,8.47
2018-06-29T16:52:02.742Z,9.83
2018-06-29T16:54:31.229Z,8.93
2018-06-29T16:56:59.956Z,8.53
2018-06-29T16:59:28.461Z,10.27
2018-06-29T17:01:56.958Z,9.73
2018-06-29T17:04:25.824Z,8.87
2018-06-29T17:06:54.293Z,9.23
2018-06-29T17:09:22.786Z,9.87
2018-06-29T17:11:51.261Z,8.40
2018-06-29T17:14:19.761Z,8.30
2018-06-29T17:16:48.212Z,10.70
2018-06-29T17:19:16.733Z,9.33
2018-06-29T17:21:45.250Z,9.20
2018-06-29T17:24:13.769Z,9.50
2018-06-29T17:26:42.210Z,8.17
2018-06-29T17:29:11.215Z,8.83
2018-06-29T17:31:39.666Z,9.20
2018-06-29T17:34:08.777Z,9.33
2018-06-29T17:36:37.350Z,11.90
2018-06-29T17:39:08.089Z,8.50
2018-06-29T17:41:36.691Z,8.80
2018-06-29T17:44:05.224Z,8.60
2018-06-29T17:46:33.804Z,8.57
2018-06-29T17:49:02.641Z,8.30
2018-06-29T17:51:31.105Z,9.63
2018-06-29T17:53:59.700Z,8.77
2018-06-29T17:56:28.457Z,8.77
2018-06-29T17:58:56.989Z,8.70
2018-06-29T18:01:25.150Z,8.30
2018-06-29T18:03:53.610Z,9.10
2018-06-29T18:06:23.289Z,9.00
2018-06-29T18:08:52.862Z,7.93
2018-06-29T18:11:21.730Z,10.97
2018-06-29T18:13:50.232Z,9.60
2018-06-29T18:16:19.040Z,8.37
2018-06-29T18:18:47.545Z,9.67
2018-06-29T18:21:16.054Z,9.57
2018-06-29T18:23:44.573Z,8.70
2018-06-29T18:26:12.721Z,9.33
2018-06-29T18:28:41.312Z,12.53
2018-06-29T18:31:10.085Z,9.37
2018-06-29T18:33:38.874Z,11.30
2018-06-29T18:36:07.361Z,9.40
2018-06-29T18:38:35.872Z,8.93
2018-06-29T18:41:04.044Z,9.20
2018-06-29T18:43:33.306Z,10.73
2018-06-29T18:46:02.476Z,11.07
2018-06-29T18:48:31.016Z,7.40
2018-06-29T18:50:59.760Z,8.87
2018-06-29T18:53:28.346Z,9.17
2018-06-29T18:55:58.983Z,9.40
2018-06-29T18:58:27.576Z,12.23
2018-06-29T19:00:56.079Z,9.83
2018-06-29T19:03:24.629Z,13.43
2018-06-29T19:05:53.169Z,19.00
2018-06-29T19:08:21.902Z,10.40
2018-06-29T19:10:50.467Z,10.83
2018-06-29T19:13:19.713Z,9.17
2018-06-29T19:15:47.946Z,9.63
2018-06-29T19:18:16.465Z,8.97
2018-06-29T19:20:44.937Z,9.80
2018-06-29T19:23:13.457Z,13.03
2018-06-29T19:25:42.590Z,9.90
2018-06-29T19:28:11.833Z,10.87
2018-06-29T19:30:40.495Z,9.70
2018-06-29T19:33:08.889Z,9.93
2018-06-29T19:35:37.371Z,10.83
2018-06-29T19:38:05.911Z,10.20
2018-06-29T19:40:34.060Z,10.70
2018-06-29T19:43:02.562Z,14.90
2018-06-29T19:45:30.771Z,13.53
2018-06-29T19:47:59.289Z,10.23
2018-06-29T19:50:28.019Z,12.93
2018-06-29T19:52:56.647Z,13.40
2018-06-29T19:55:25.201Z,10.20
2018-06-29T19:57:53.756Z,12.17
2018-06-29T20:00:21.952Z,12.33
2018-06-29T20:02:50.505Z,11.00
2018-06-29T20:05:19.014Z,13.17
2018-06-29T20:07:47.561Z,11.93
2018-06-29T20:10:16.161Z,13.93
2018-06-29T20:12:44.477Z,11.57
2018-06-29T20:15:12.945Z,13.67
2018-06-29T20:17:41.516Z,11.20
2018-06-29T20:20:11.230Z,12.63
2018-06-29T20:22:39.809Z,10.50
2018-06-29T20:25:08.278Z,11.90
2018-06-29T20:27:37.975Z,10.70
2018-06-29T20:30:07.336Z,11.23
2018-06-29T20:32:35.954Z,11.90
2018-06-29T20:35:04.597Z,10.83
2018-06-29T20:37:33.123Z,13.47
2018-06-29T20:40:01.646Z,14.20
2018-06-29T20:42:29.874Z,12.77
2018-06-29T20:44:58.533Z,10.97
2018-06-29T20:47:27.178Z,10.50
2018-06-29T20:50:05.738Z,12.30
2018-06-29T20:52:34.484Z,12.40
2018-06-29T20:55:03.202Z,12.33
2018-06-29T20:57:31.873Z,15.70
2018-06-29T21:00:05.766Z,12.20
2018-06-29T21:02:34.589Z,12.23
2018-06-29T21:05:03.466Z,11.73
2018-06-29T21:07:32.437Z,10.43
2018-06-29T21:10:01.267Z,11.40
2018-06-29T21:12:29.991Z,10.83
2018-06-29T21:14:58.687Z,12.70
2018-06-29T21:17:27.379Z,13.53
2018-06-29T21:19:56.106Z,11.70
2018-06-29T21:22:24.830Z,10.00
2018-06-29T21:24:53.523Z,9.20
2018-06-29T21:27:22.424Z,11.53
2018-06-29T21:29:51.252Z,11.47
2018-06-29T21:32:19.709Z,12.10
2018-06-29T21:34:48.563Z,14.10
2018-06-29T21:37:17.678Z,14.00
2018-06-29T21:39:47.366Z,11.27
2018-06-29T21:42:17.042Z,10.90
2018-06-29T21:44:45.338Z,12.47
2018-06-29T21:47:13.890Z,10.67
2018-06-29T21:49:45.980Z,12.73
2018-06-29T21:52:14.204Z,11.63
2018-06-29T21:54:42.695Z,12.70
2018-06-29T21:57:11.246Z,14.47
2018-06-29T21:59:40.555Z,10.13
2018-06-29T22:02:09.130Z,10.43
2018-06-29T22:04:38.717Z,13.50
2018-06-29T22:07:07.419Z,12.87
2018-06-29T22:09:40.878Z,12.03
2018-06-29T22:12:09.470Z,11.17
2018-06-29T22:14:37.975Z,12.20
2018-06-29T22:17:06.635Z,10.30
2018-06-29T22:19:35.239Z,12.23
2018-06-29T22:22:03.840Z,13.60
2018-06-29T22:24:32.337Z,14.57
2018-06-29T22:27:00.890Z,11.83
2018-06-29T22:29:34.869Z,9.83
2018-06-29T22:32:03.474Z,11.83
2018-06-29T22:34:31.982Z,10.97
2018-06-29T22:37:00.463Z,11.60
2018-06-29T22:39:28.938Z,10.03
2018-06-29T22:41:57.447Z,10.30
2018-06-29T22:44:26.043Z,9.70
2018-06-29T22:46:54.600Z,11.27
2018-06-29T22:49:32.857Z,9.87
2018-06-29T22:52:01.434Z,11.33
2018-06-29T22:54:29.965Z,11.83
2018-06-29T22:56:59.407Z,10.33
2018-06-29T22:59:27.922Z,11.77
2018-06-29T23:01:56.474Z,10.90
2018-06-29T23:04:24.983Z,10.47
2018-06-29T23:06:53.542Z,10.93
2018-06-29T23:09:22.083Z,10.80
2018-06-29T23:11:50.738Z,10.27
2018-06-29T23:14:20.347Z,12.37
2018-06-29T23:16:48.987Z,12.43
2018-06-29T23:19:17.652Z,10.00
2018-06-29T23:21:46.308Z,17.60
2018-06-29T23:24:15.063Z,10.80
2018-06-29T23:26:43.809Z,11.40
2018-06-29T23:29:29.013Z,11.00
2018-06-29T23:31:57.641Z,13.80
2018-06-29T23:34:26.156Z,12.17
2018-06-29T23:36:54.671Z,15.47
2018-06-29T23:39:23.196Z,13.57
2018-06-29T23:41:51.914Z,11.23
2018-06-29T23:44:20.386Z,10.93
2018-06-29T23:46:48.861Z,12.47
2018-06-29T23:49:23.945Z,11.43
2018-06-29T23:51:52.417Z,12.33
2018-06-29T23:54:20.925Z,12.60
2018-06-29T23:56:49.381Z,13.60
2018-06-29T23:59:17.900Z,10.60
